Time;durP1;ratioP1;P1;durP2;ratioP2;P2;SDS_P1;SDS_P2;PMS_P1;PMS_P2;Temp;Humidity;BMP_temperature;BMP_pressure;BME280_temperature;BME280_humidity;BME280_pressure;Samples;Min_cycle;Max_cycle;Signal;HPM_P1;HPM_P2
2023/12/31 00:01:34;;;;;;;8.93;2.20;;;5.30;99.90;;;;;;4206084;28;20506;-79
2023/12/31 00:03:36;;;;;;;9.10;2.30;;;5.20;99.90;;;;;;4210093;28;20228;-78
2023/12/31 00:05:38;;;;;;;6.27;2.30;;;5.20;99.90;;;;;;4217857;28;20439;-78
2023/12/31 00:07:39;;;;;;;7.50;2.63;;;5.20;99.90;;;;;;4211923;28;20942;-78
2023/12/31 00:09:41;;;;;;;9.43;2.50;;;5.20;99.90;;;;;;4215733;28;20522;-78
2023/12/31 00:11:44;;;;;;;12.17;3.20;;;5.20;99.90;;;;;;4199907;28;20194;-78
2023/12/31 00:13:46;;;;;;;7.70;2.47;;;5.20;99.90;;;;;;4210485;28;20461;-78
2023/12/31 00:15:48;;;;;;;6.87;2.73;;;5.10;99.90;;;;;;4209785;28;20504;-78
2023/12/31 00:17:50;;;;;;;5.83;2.67;;;5.10;99.90;;;;;;4209868;28;20730;-79
2023/12/31 00:19:52;;;;;;;7.20;2.30;;;5.10;99.90;;;;;;4211089;28;20443;-78
2023/12/31 00:21:53;;;;;;;7.33;2.63;;;5.10;99.90;;;;;;4190011;28;20444;-78
2023/12/31 00:23:54;;;;;;;5.20;2.60;;;5.10;99.90;;;;;;4212343;28;20224;-78
2023/12/31 00:25:56;;;;;;;7.67;2.50;;;5.00;99.90;;;;;;4215576;28;21093;-77
2023/12/31 00:28:00;;;;;;;10.07;2.70;;;5.10;99.90;;;;;;4212518;28;20211;-79
2023/12/31 00:30:01;;;;;;;9.03;2.57;;;5.10;99.90;;;;;;4211056;28;20775;-78
2023/12/31 00:32:02;;;;;;;6.20;2.20;;;5.10;99.90;;;;;;4210613;28;20507;-78
2023/12/31 00:34:04;;;;;;;4.73;2.40;;;5.00;99.90;;;;;;4213782;28;20293;-78
2023/12/31 00:36:07;;;;;;;5.60;2.30;;;5.00;99.90;;;;;;4218538;28;20439;-78
2023/12/31 00:38:09;;;;;;;6.83;2.50;;;5.00;99.90;;;;;;4212255;28;20246;-78
2023/12/31 00:40:11;;;;;;;8.33;3.40;;;5.00;99.90;;;;;;4212217;28;20442;-79
2023/12/31 00:42:13;;;;;;;10.27;3.10;;;5.00;99.90;;;;;;4208800;28;20515;-78
2023/12/31 00:44:16;;;;;;;6.50;2.60;;;5.00;99.90;;;;;;4212501;28;21010;-78
2023/12/31 00:46:20;;;;;;;7.57;2.53;;;5.00;99.90;;;;;;4210283;28;20485;-79
2023/12/31 00:48:22;;;;;;;6.07;2.43;;;5.00;99.90;;;;;;4211619;28;20450;-78
2023/12/31 00:50:24;;;;;;;10.27;2.10;;;5.00;99.90;;;;;;4212753;28;20454;-77
2023/12/31 00:52:26;;;;;;;7.47;2.47;;;4.90;99.90;;;;;;4215430;28;20451;-79
2023/12/31 00:54:28;;;;;;;7.80;2.40;;;5.00;99.90;;;;;;4216812;28;20503;-78
2023/12/31 00:56:29;;;;;;;9.87;3.00;;;4.90;99.90;;;;;;4210854;28;20979;-79
2023/12/31 00:58:30;;;;;;;3.33;2.20;;;4.90;99.90;;;;;;4218593;28;21045;-79
2023/12/31 01:00:34;;;;;;;6.00;1.90;;;4.90;99.90;;;;;;4212988;28;20446;-79
2023/12/31 01:02:36;;;;;;;6.63;2.33;;;4.90;99.90;;;;;;4214822;28;20228;-78
2023/12/31 01:04:38;;;;;;;5.67;2.00;;;4.80;99.90;;;;;;4201401;28;20509;-78
2023/12/31 01:06:40;;;;;;;8.20;2.00;;;4.90;99.90;;;;;;4210815;28;20557;-78
2023/12/31 01:08:41;;;;;;;5.27;2.13;;;4.80;99.90;;;;;;4213956;28;20467;-78
2023/12/31 01:10:43;;;;;;;8.47;2.10;;;4.80;99.90;;;;;;4218156;28;21277;-78
2023/12/31 01:12:45;;;;;;;7.47;1.90;;;4.80;99.90;;;;;;4214415;28;20473;-78
2023/12/31 01:14:46;;;;;;;5.53;1.80;;;4.80;99.90;;;;;;4215890;28;20456;-78
2023/12/31 01:16:50;;;;;;;6.87;2.40;;;4.90;99.90;;;;;;4215255;28;20450;-78
2023/12/31 01:18:51;;;;;;;8.20;2.20;;;4.80;99.90;;;;;;4217904;28;20713;-78
2023/12/31 01:20:52;;;;;;;4.37;1.70;;;4.90;99.90;;;;;;4215393;28;20446;-79
2023/12/31 01:22:54;;;;;;;7.53;2.07;;;4.90;99.90;;;;;;4214722;28;20463;-78
2023/12/31 01:24:56;;;;;;;6.90;2.20;;;4.90;99.90;;;;;;4222086;28;20585;-79
2023/12/31 01:26:58;;;;;;;6.47;1.57;;;4.90;99.90;;;;;;4204742;28;20511;-78
2023/12/31 01:28:59;;;;;;;7.27;2.03;;;4.90;99.90;;;;;;4218910;28;20457;-79
2023/12/31 01:31:02;;;;;;;6.77;2.00;;;4.90;99.90;;;;;;4214034;28;20437;-78
2023/12/31 01:33:04;;;;;;;7.03;2.03;;;4.90;99.90;;;;;;4207294;28;20237;-78
2023/12/31 01:35:06;;;;;;;8.63;2.00;;;4.90;99.90;;;;;;4212914;28;20549;-78
2023/12/31 01:37:08;;;;;;;4.90;1.80;;;4.90;99.90;;;;;;4212913;28;20450;-78
2023/12/31 01:39:10;;;;;;;5.07;1.80;;;4.90;99.90;;;;;;4212883;28;20443;-78
2023/12/31 01:41:12;;;;;;;7.83;1.93;;;4.90;99.90;;;;;;4215932;28;20443;-79
2023/12/31 01:43:18;;;;;;;4.17;1.73;;;4.90;99.90;;;;;;4215943;28;20542;-79
2023/12/31 01:45:20;;;;;;;6.80;1.90;;;4.90;99.90;;;;;;4214543;28;20475;-78
2023/12/31 01:47:22;;;;;;;4.10;1.67;;;5.00;99.90;;;;;;4214196;28;20493;-78
2023/12/31 01:49:26;;;;;;;5.83;1.90;;;5.00;99.90;;;;;;4214226;28;20446;-79
2023/12/31 01:51:30;;;;;;;4.50;1.97;;;5.00;99.90;;;;;;4199915;28;20462;-78
2023/12/31 01:53:33;;;;;;;2.80;2.10;;;5.00;99.90;;;;;;4213921;28;20458;-78
2023/12/31 01:55:35;;;;;;;4.33;1.70;;;5.00;99.90;;;;;;4214284;28;20454;-78
2023/12/31 01:57:37;;;;;;;6.57;1.63;;;4.90;99.90;;;;;;4197123;28;20455;-78
2023/12/31 01:59:41;;;;;;;3.03;1.40;;;5.00;99.90;;;;;;4213813;28;20443;-78
2023/12/31 02:01:43;;;;;;;5.40;1.90;;;5.00;99.90;;;;;;4214799;28;20466;-78
2023/12/31 02:03:45;;;;;;;8.20;1.70;;;5.00;99.90;;;;;;4211632;28;20520;-79
2023/12/31 02:05:51;;;;;;;5.10;1.57;;;5.00;99.90;;;;;;4212524;28;20455;-78
2023/12/31 02:07:52;;;;;;;4.77;1.50;;;4.90;99.90;;;;;;4219455;28;20573;-79
2023/12/31 02:09:55;;;;;;;6.70;1.80;;;4.90;99.90;;;;;;4211739;28;20547;-79
2023/12/31 02:11:57;;;;;;;4.50;1.60;;;5.00;99.90;;;;;;4215928;28;20959;-79
2023/12/31 02:14:01;;;;;;;5.97;1.70;;;4.90;99.90;;;;;;4220261;28;20481;-79
2023/12/31 02:16:04;;;;;;;6.67;1.23;;;4.90;99.90;;;;;;4213571;28;20453;-79
2023/12/31 02:18:06;;;;;;;3.63;1.50;;;4.90;99.90;;;;;;4215334;28;20511;-79
2023/12/31 02:20:09;;;;;;;4.10;1.50;;;4.90;99.90;;;;;;4213340;28;20465;-79
2023/12/31 02:22:13;;;;;;;3.43;1.40;;;4.90;99.90;;;;;;4213706;28;20533;-78
2023/12/31 02:24:19;;;;;;;7.30;1.40;;;4.90;99.90;;;;;;4212878;28;20482;-79
2023/12/31 02:26:24;;;;;;;4.30;1.33;;;4.90;99.90;;;;;;4215369;28;20458;-78
2023/12/31 02:28:26;;;;;;;4.60;1.67;;;4.90;99.90;;;;;;4213287;28;20492;-78
2023/12/31 02:30:28;;;;;;;5.63;1.60;;;4.90;99.90;;;;;;4216604;28;20545;-79
2023/12/31 02:32:30;;;;;;;2.73;1.50;;;4.90;99.90;;;;;;4214311;28;20477;-79
2023/12/31 02:34:31;;;;;;;6.73;1.50;;;4.90;99.90;;;;;;4216266;28;20485;-79
2023/12/31 02:36:33;;;;;;;3.77;1.30;;;4.90;99.90;;;;;;4212239;28;20442;-79
2023/12/31 02:38:35;;;;;;;5.20;1.50;;;4.90;99.90;;;;;;4217899;28;20447;-79
2023/12/31 02:40:37;;;;;;;4.23;1.60;;;4.80;99.90;;;;;;4214780;28;21013;-79
2023/12/31 02:42:41;;;;;;;4.97;1.50;;;4.80;99.90;;;;;;4213910;28;20459;-79
2023/12/31 02:44:42;;;;;;;3.20;1.33;;;4.80;99.90;;;;;;4211131;28;20443;-79
2023/12/31 02:46:44;;;;;;;2.90;1.63;;;4.80;99.90;;;;;;4216854;28;20477;-79
2023/12/31 02:48:46;;;;;;;4.77;1.53;;;4.70;99.90;;;;;;4212613;28;20209;-79
2023/12/31 02:50:48;;;;;;;3.40;1.70;;;4.70;99.90;;;;;;4212870;28;20445;-79
2023/12/31 02:52:53;;;;;;;4.53;1.53;;;4.70;99.90;;;;;;4214069;28;20465;-79
2023/12/31 02:54:55;;;;;;;3.90;1.70;;;4.70;99.90;;;;;;4212962;28;20525;-79
2023/12/31 02:56:57;;;;;;;6.30;1.70;;;4.70;99.90;;;;;;4213165;28;20438;-79
2023/12/31 02:59:00;;;;;;;6.77;1.70;;;4.70;99.90;;;;;;4216115;28;20458;-79
2023/12/31 03:01:02;;;;;;;3.97;1.90;;;4.60;99.90;;;;;;4217034;28;21004;-79
2023/12/31 03:03:04;;;;;;;3.63;1.70;;;4.60;99.90;;;;;;4214739;28;20480;-79
2023/12/31 03:05:08;;;;;;;4.27;1.57;;;4.70;99.90;;;;;;4217982;28;20511;-78
2023/12/31 03:07:10;;;;;;;6.07;1.70;;;4.70;99.90;;;;;;4219555;28;20474;-79
2023/12/31 03:09:14;;;;;;;5.00;1.60;;;4.70;99.90;;;;;;4223144;28;21090;-78
2023/12/31 03:11:16;;;;;;;6.13;1.60;;;4.70;99.90;;;;;;4216384;28;20484;-79
2023/12/31 03:13:18;;;;;;;3.97;1.43;;;4.60;99.90;;;;;;4213646;28;20480;-79
2023/12/31 03:15:21;;;;;;;5.00;1.97;;;4.70;99.90;;;;;;4213628;28;20934;-79
2023/12/31 03:17:23;;;;;;;4.63;1.73;;;4.70;99.90;;;;;;4213746;28;20504;-78
2023/12/31 03:19:25;;;;;;;3.63;1.50;;;4.70;99.90;;;;;;4218152;28;20441;-79
2023/12/31 03:21:26;;;;;;;3.70;1.70;;;4.70;99.90;;;;;;4212410;28;20439;-78
2023/12/31 03:23:28;;;;;;;5.03;1.67;;;4.70;99.90;;;;;;4216291;28;20470;-79
2023/12/31 03:25:30;;;;;;;6.67;1.80;;;4.70;99.90;;;;;;4213257;28;20200;-79
2023/12/31 03:27:32;;;;;;;3.57;1.43;;;4.70;99.90;;;;;;4217873;28;20479;-79
2023/12/31 03:29:34;;;;;;;3.97;1.60;;;4.70;99.90;;;;;;4212858;28;20468;-79
2023/12/31 03:31:37;;;;;;;4.90;1.73;;;4.70;99.90;;;;;;4219737;28;20504;-79
2023/12/31 03:33:39;;;;;;;5.50;1.50;;;4.70;99.90;;;;;;4212416;28;20474;-79
2023/12/31 03:35:41;;;;;;;8.87;1.77;;;4.70;99.90;;;;;;4213763;28;20499;-79
2023/12/31 03:37:46;;;;;;;4.23;1.53;;;4.70;99.90;;;;;;4190922;28;20443;-78
2023/12/31 03:39:50;;;;;;;4.50;1.47;;;4.60;99.90;;;;;;4215583;28;20433;-78
2023/12/31 03:41:53;;;;;;;4.13;1.20;;;4.70;99.90;;;;;;4211027;28;20450;-79
2023/12/31 03:43:55;;;;;;;2.73;1.50;;;4.70;99.90;;;;;;4214904;28;20520;-78
2023/12/31 03:45:57;;;;;;;5.43;1.30;;;4.70;99.90;;;;;;4212212;28;20446;-79
2023/12/31 03:48:00;;;;;;;2.23;1.30;;;4.60;99.90;;;;;;4217908;28;20509;-79
2023/12/31 03:50:02;;;;;;;7.07;1.40;;;4.70;99.90;;;;;;4214065;28;20444;-78
2023/12/31 03:52:06;;;;;;;4.03;1.40;;;4.70;99.90;;;;;;4218318;28;20484;-78
2023/12/31 03:54:08;;;;;;;2.97;1.30;;;4.70;99.90;;;;;;4213195;28;20866;-78
2023/12/31 03:56:09;;;;;;;6.10;1.43;;;4.70;99.90;;;;;;4212108;28;20462;-78
2023/12/31 03:58:11;;;;;;;4.13;1.03;;;4.70;99.90;;;;;;4212430;28;21095;-78
2023/12/31 04:00:14;;;;;;;3.30;1.13;;;4.70;99.90;;;;;;4212486;28;20469;-78
2023/12/31 04:02:18;;;;;;;4.17;1.50;;;4.70;99.90;;;;;;4212286;28;20441;-78
2023/12/31 04:04:21;;;;;;;3.80;1.23;;;4.70;99.90;;;;;;4213803;28;21026;-78
2023/12/31 04:06:23;;;;;;;1.87;1.00;;;4.60;99.90;;;;;;4215192;28;20444;-78
2023/12/31 04:08:25;;;;;;;6.37;1.20;;;4.70;99.90;;;;;;4213013;28;20474;-77
2023/12/31 04:10:27;;;;;;;1.93;1.20;;;4.70;99.90;;;;;;4212970;28;20526;-79
2023/12/31 04:12:31;;;;;;;4.70;1.33;;;4.70;99.90;;;;;;4218509;28;20449;-79
2023/12/31 04:14:32;;;;;;;1.97;1.07;;;4.70;99.90;;;;;;4212710;28;20441;-79
2023/12/31 04:16:34;;;;;;;2.80;1.33;;;4.70;99.90;;;;;;4211130;28;20450;-79
2023/12/31 04:18:36;;;;;;;2.90;1.30;;;4.70;99.90;;;;;;4216285;28;20205;-79
2023/12/31 04:20:39;;;;;;;3.90;1.40;;;4.70;99.90;;;;;;4211726;28;21014;-78
2023/12/31 04:22:40;;;;;;;2.00;1.17;;;4.70;99.90;;;;;;4212312;28;21061;-79
2023/12/31 04:24:42;;;;;;;3.63;1.30;;;4.80;99.90;;;;;;4211579;28;20447;-79
2023/12/31 04:26:44;;;;;;;2.83;1.10;;;4.70;99.90;;;;;;4210291;28;20463;-79
2023/12/31 04:28:46;;;;;;;5.03;1.40;;;4.70;99.90;;;;;;4213055;28;20857;-79
2023/12/31 04:30:51;;;;;;;3.83;1.37;;;4.80;99.90;;;;;;4211227;28;20539;-79
2023/12/31 04:32:53;;;;;;;2.57;1.23;;;4.80;99.90;;;;;;4209483;28;20478;-79
2023/12/31 04:34:55;;;;;;;3.27;1.03;;;4.80;99.90;;;;;;4214883;28;20526;-79
2023/12/31 04:36:58;;;;;;;2.53;1.03;;;4.80;99.90;;;;;;4212371;28;20542;-79
2023/12/31 04:39:00;;;;;;;2.73;1.23;;;4.80;99.90;;;;;;4214640;28;20461;-79
2023/12/31 04:41:02;;;;;;;3.87;1.03;;;4.80;99.90;;;;;;4209927;28;20499;-79
2023/12/31 04:43:03;;;;;;;2.63;0.97;;;4.80;99.90;;;;;;4212605;28;20476;-79
2023/12/31 04:45:09;;;;;;;4.13;1.20;;;4.70;99.90;;;;;;4211384;28;21106;-79
2023/12/31 04:47:11;;;;;;;2.37;1.07;;;4.70;99.90;;;;;;4210127;28;20457;-79
2023/12/31 04:49:14;;;;;;;4.53;1.20;;;4.70;99.90;;;;;;4211974;28;20462;-79
2023/12/31 04:51:26;;;;;;;4.90;1.20;;;4.70;99.90;;;;;;4209453;28;20534;-79
2023/12/31 04:53:33;;;;;;;2.50;1.37;;;4.70;99.90;;;;;;4220398;28;20803;-79
2023/12/31 04:55:37;;;;;;;1.37;1.13;;;4.70;99.90;;;;;;4211736;28;21066;-79
2023/12/31 04:57:38;;;;;;;2.33;1.10;;;4.80;99.90;;;;;;4213636;28;20899;-78
2023/12/31 04:59:42;;;;;;;3.30;1.23;;;4.70;99.90;;;;;;4210751;28;20466;-79
2023/12/31 05:01:43;;;;;;;2.97;1.03;;;4.70;99.90;;;;;;4211631;28;20280;-79
2023/12/31 05:03:49;;;;;;;2.03;1.10;;;4.70;99.90;;;;;;4200445;28;20463;-78
2023/12/31 05:05:50;;;;;;;3.63;1.27;;;4.70;99.90;;;;;;4209706;28;20435;-77
2023/12/31 05:07:52;;;;;;;3.10;1.17;;;4.70;99.90;;;;;;4210389;28;20466;-79
2023/12/31 05:09:56;;;;;;;2.20;1.20;;;4.60;99.90;;;;;;4209698;28;20446;-78
2023/12/31 05:12:00;;;;;;;2.87;1.03;;;4.60;99.90;;;;;;4191216;28;20534;-79
2023/12/31 05:14:01;;;;;;;4.20;1.30;;;4.60;99.90;;;;;;4209181;28;20482;-79
2023/12/31 05:16:03;;;;;;;1.73;1.20;;;4.60;99.90;;;;;;4207932;28;20458;-78
2023/12/31 05:18:06;;;;;;;3.00;1.63;;;4.60;99.90;;;;;;4215807;28;20607;-78
2023/12/31 05:20:07;;;;;;;3.10;1.00;;;4.60;99.90;;;;;;4210836;28;20450;-78
2023/12/31 05:22:09;;;;;;;3.00;1.10;;;4.60;99.90;;;;;;4217280;28;20509;-78
2023/12/31 05:24:11;;;;;;;2.33;1.10;;;4.60;99.90;;;;;;4216621;28;20870;-78
2023/12/31 05:26:15;;;;;;;5.53;1.30;;;4.50;99.90;;;;;;4214497;28;20444;-78
2023/12/31 05:28:17;;;;;;;4.83;1.20;;;4.50;99.90;;;;;;4216273;28;20830;-78
2023/12/31 05:30:20;;;;;;;2.67;1.30;;;4.50;99.90;;;;;;4211526;28;20450;-79
2023/12/31 05:32:21;;;;;;;5.07;1.30;;;4.50;99.90;;;;;;4211183;28;20442;-78
2023/12/31 05:34:23;;;;;;;3.90;1.17;;;4.50;99.90;;;;;;4213947;28;21031;-78
2023/12/31 05:36:25;;;;;;;3.27;1.10;;;4.50;99.90;;;;;;4209082;28;20454;-78
2023/12/31 05:38:27;;;;;;;7.40;1.20;;;4.50;99.90;;;;;;4213771;28;20437;-78
2023/12/31 05:40:29;;;;;;;4.63;1.50;;;4.50;99.90;;;;;;4218230;28;20449;-78
2023/12/31 05:42:34;;;;;;;5.00;1.40;;;4.50;99.90;;;;;;4215184;28;20842;-77
2023/12/31 05:44:36;;;;;;;4.87;1.20;;;4.50;99.90;;;;;;4216000;28;20442;-78
2023/12/31 05:46:37;;;;;;;1.53;1.00;;;4.60;99.90;;;;;;4214043;28;20927;-77
2023/12/31 05:48:42;;;;;;;2.10;1.20;;;4.60;99.90;;;;;;4214911;28;20481;-79
2023/12/31 05:50:46;;;;;;;2.80;1.37;;;4.60;99.90;;;;;;4213524;28;20264;-78
2023/12/31 05:52:48;;;;;;;3.93;1.10;;;4.60;99.90;;;;;;4217614;28;20834;-77
2023/12/31 05:54:50;;;;;;;2.63;1.50;;;4.60;99.90;;;;;;4195476;28;20511;-80
2023/12/31 05:56:51;;;;;;;3.93;1.30;;;4.60;99.90;;;;;;4217912;28;20504;-79
2023/12/31 05:58:54;;;;;;;3.77;1.20;;;4.60;99.90;;;;;;4214225;28;20447;-79
2023/12/31 06:00:56;;;;;;;3.27;1.30;;;4.60;99.90;;;;;;4214863;28;20691;-78
2023/12/31 06:02:58;;;;;;;4.03;1.30;;;4.60;99.90;;;;;;4221645;28;20979;-78
2023/12/31 06:05:00;;;;;;;1.47;1.00;;;4.50;99.90;;;;;;4216163;28;20819;-77
2023/12/31 06:07:02;;;;;;;3.47;1.60;;;4.50;99.90;;;;;;4213998;28;20501;-79
2023/12/31 06:09:04;;;;;;;2.73;1.10;;;4.50;99.90;;;;;;4214049;28;21146;-78
2023/12/31 06:11:06;;;;;;;1.97;1.30;;;4.50;99.90;;;;;;4213800;28;20457;-79
2023/12/31 06:13:08;;;;;;;3.20;1.20;;;4.50;99.90;;;;;;4213676;28;20968;-78
2023/12/31 06:15:11;;;;;;;2.97;1.40;;;4.60;99.90;;;;;;4214602;28;20445;-79
2023/12/31 06:17:15;;;;;;;3.30;1.23;;;4.50;99.90;;;;;;4211955;28;20467;-79
2023/12/31 06:19:17;;;;;;;3.43;1.30;;;4.50;99.90;;;;;;4212832;28;20435;-79
2023/12/31 06:21:21;;;;;;;2.97;1.40;;;4.50;99.90;;;;;;4212998;28;20547;-79
2023/12/31 06:23:23;;;;;;;4.70;1.30;;;4.50;99.90;;;;;;4214618;28;20523;-79
2023/12/31 06:25:28;;;;;;;2.63;1.40;;;4.50;99.90;;;;;;4212854;28;20491;-79
2023/12/31 06:27:29;;;;;;;2.40;1.20;;;4.50;99.90;;;;;;4201648;28;20466;-79
2023/12/31 06:29:31;;;;;;;2.67;1.40;;;4.50;99.90;;;;;;4210424;28;20962;-79
2023/12/31 06:31:34;;;;;;;1.70;1.40;;;4.50;99.90;;;;;;4215034;28;20200;-79
2023/12/31 06:33:35;;;;;;;3.73;1.50;;;4.60;99.90;;;;;;4215166;28;21090;-79
2023/12/31 06:35:37;;;;;;;2.43;1.43;;;4.60;99.90;;;;;;4213512;28;20452;-79
2023/12/31 06:37:38;;;;;;;4.10;1.17;;;4.60;99.90;;;;;;4221231;28;20216;-79
2023/12/31 06:39:43;;;;;;;3.47;1.50;;;4.50;99.90;;;;;;4211736;28;20470;-79
2023/12/31 06:41:45;;;;;;;4.27;1.40;;;4.50;99.90;;;;;;4214777;28;20736;-79
2023/12/31 06:43:47;;;;;;;3.53;1.07;;;4.50;99.90;;;;;;4214821;28;20478;-79
2023/12/31 06:45:49;;;;;;;5.37;1.60;;;4.50;99.90;;;;;;4213078;28;20508;-79
2023/12/31 06:47:54;;;;;;;4.30;1.67;;;4.50;99.90;;;;;;4213271;28;20447;-79
2023/12/31 06:49:56;;;;;;;3.20;1.50;;;4.50;99.90;;;;;;4212389;28;20457;-78
2023/12/31 06:51:58;;;;;;;3.23;2.00;;;4.50;99.90;;;;;;4212976;28;20515;-79
2023/12/31 06:54:00;;;;;;;2.70;1.43;;;4.50;99.90;;;;;;4212933;28;20891;-79
2023/12/31 06:56:04;;;;;;;2.70;1.20;;;4.40;99.90;;;;;;4214562;28;20521;-79
2023/12/31 06:58:06;;;;;;;6.00;1.70;;;4.40;99.90;;;;;;4209111;28;20825;-79
2023/12/31 07:00:09;;;;;;;3.17;1.70;;;4.40;99.90;;;;;;4214304;28;20449;-79
2023/12/31 07:02:11;;;;;;;2.67;1.60;;;4.40;99.90;;;;;;4214210;28;20443;-79
2023/12/31 07:04:14;;;;;;;3.23;1.60;;;4.40;99.90;;;;;;4216119;28;20524;-78
2023/12/31 07:06:16;;;;;;;3.40;1.47;;;4.40;99.90;;;;;;4214388;28;20458;-79
2023/12/31 07:08:18;;;;;;;2.43;1.73;;;4.40;99.90;;;;;;4213280;28;20554;-79
2023/12/31 07:10:21;;;;;;;3.47;1.90;;;4.40;99.90;;;;;;4217683;28;20442;-79
2023/12/31 07:12:23;;;;;;;3.47;1.70;;;4.40;99.90;;;;;;4212499;28;20503;-79
2023/12/31 07:14:26;;;;;;;4.87;2.40;;;4.10;99.90;;;;;;4213334;28;20475;-79
2023/12/31 07:16:28;;;;;;;4.57;1.73;;;4.40;99.90;;;;;;4212582;28;20450;-79
2023/12/31 07:18:30;;;;;;;5.47;1.80;;;4.40;99.90;;;;;;4212996;28;20443;-79
2023/12/31 07:20:34;;;;;;;3.93;2.00;;;4.40;99.90;;;;;;4212822;28;20491;-79
2023/12/31 07:22:37;;;;;;;2.97;1.60;;;4.40;99.90;;;;;;4214031;28;20462;-79
2023/12/31 07:24:41;;;;;;;4.13;2.07;;;4.40;99.90;;;;;;4214139;28;20493;-78
2023/12/31 07:26:43;;;;;;;2.60;1.70;;;4.50;99.90;;;;;;4210517;28;20854;-79
2023/12/31 07:28:44;;;;;;;3.27;1.87;;;4.50;99.90;;;;;;4214871;28;20504;-79
2023/12/31 07:30:47;;;;;;;2.60;1.70;;;4.50;99.90;;;;;;4213306;28;20450;-79
2023/12/31 07:32:48;;;;;;;4.50;1.97;;;4.50;99.90;;;;;;4214249;28;20233;-79
2023/12/31 07:34:50;;;;;;;3.30;1.93;;;4.50;99.90;;;;;;4212446;28;20556;-78
2023/12/31 07:36:53;;;;;;;5.07;2.30;;;4.50;99.90;;;;;;4214389;28;20694;-79
2023/12/31 07:38:55;;;;;;;3.73;2.13;;;4.50;99.90;;;;;;4215391;28;20450;-79
2023/12/31 07:40:57;;;;;;;4.17;2.20;;;4.50;99.90;;;;;;4213470;28;20565;-79
2023/12/31 07:42:59;;;;;;;4.47;2.00;;;4.50;99.90;;;;;;4211756;28;20471;-79
2023/12/31 07:45:01;;;;;;;4.03;2.00;;;4.60;99.90;;;;;;4216247;28;20468;-79
2023/12/31 07:47:06;;;;;;;3.77;1.90;;;4.60;99.90;;;;;;4212267;28;20443;-79
2023/12/31 07:49:08;;;;;;;5.70;2.30;;;4.60;99.90;;;;;;4211818;28;20490;-79
2023/12/31 07:51:10;;;;;;;4.80;2.43;;;4.60;99.90;;;;;;4213611;28;20446;-79
2023/12/31 07:53:13;;;;;;;4.97;2.17;;;4.70;99.90;;;;;;4215346;28;20504;-79
2023/12/31 07:55:15;;;;;;;3.67;1.87;;;4.70;99.90;;;;;;4212564;28;20459;-79
2023/12/31 07:57:17;;;;;;;4.00;2.00;;;4.80;99.90;;;;;;4213654;28;20914;-79
2023/12/31 07:59:20;;;;;;;3.47;2.10;;;4.80;99.90;;;;;;4212555;28;20500;-79
2023/12/31 08:01:23;;;;;;;4.50;1.97;;;4.80;99.90;;;;;;4195026;28;20459;-80
2023/12/31 08:03:27;;;;;;;4.87;1.80;;;4.90;99.90;;;;;;4209067;28;21184;-79
2023/12/31 08:05:28;;;;;;;4.77;2.17;;;4.90;99.90;;;;;;4212468;28;20488;-79
2023/12/31 08:07:30;;;;;;;3.30;1.83;;;4.90;99.90;;;;;;4218217;28;20449;-78
2023/12/31 08:09:33;;;;;;;4.50;2.30;;;4.90;99.90;;;;;;4214075;28;20586;-78
2023/12/31 08:11:41;;;;;;;4.83;2.17;;;5.10;99.90;;;;;;4217178;28;20227;-78
2023/12/31 08:13:43;;;;;;;3.30;1.90;;;5.00;99.90;;;;;;4213610;28;20462;-79
2023/12/31 08:15:44;;;;;;;4.87;2.00;;;5.00;99.90;;;;;;4216310;28;20442;-79
2023/12/31 08:17:46;;;;;;;4.47;1.87;;;5.10;99.90;;;;;;4214867;28;20489;-79
2023/12/31 08:19:48;;;;;;;3.23;1.80;;;5.10;99.90;;;;;;4214796;28;20661;-78
2023/12/31 08:21:50;;;;;;;4.70;1.80;;;5.10;99.90;;;;;;4213359;28;21256;-79
2023/12/31 08:23:51;;;;;;;4.40;1.60;;;5.20;99.90;;;;;;4214352;28;20455;-79
2023/12/31 08:25:54;;;;;;;3.53;1.87;;;5.20;99.90;;;;;;4213502;28;20461;-79
2023/12/31 08:27:56;;;;;;;3.43;1.77;;;5.30;99.90;;;;;;4212441;28;20205;-80
2023/12/31 08:29:58;;;;;;;4.67;1.60;;;5.40;99.90;;;;;;4213346;28;20471;-77
2023/12/31 08:32:00;;;;;;;4.33;1.70;;;5.40;99.90;;;;;;4211652;28;20507;-77
2023/12/31 08:34:01;;;;;;;2.47;1.40;;;5.40;99.90;;;;;;4210608;28;20470;-78
2023/12/31 08:36:04;;;;;;;4.80;1.50;;;5.50;99.90;;;;;;4211933;28;20435;-78
2023/12/31 08:38:05;;;;;;;2.47;1.60;;;5.50;99.90;;;;;;4206197;28;21006;-78
2023/12/31 08:40:09;;;;;;;4.87;2.53;;;5.50;99.90;;;;;;4207413;28;20205;-78
2023/12/31 08:42:13;;;;;;;3.20;1.90;;;5.60;99.90;;;;;;4211055;28;20224;-78
2023/12/31 08:44:14;;;;;;;6.00;1.97;;;5.60;99.90;;;;;;4209480;28;20234;-78
2023/12/31 08:46:16;;;;;;;3.57;2.20;;;5.60;99.90;;;;;;4210353;28;20247;-78
2023/12/31 08:48:17;;;;;;;4.13;2.30;;;5.60;99.90;;;;;;4210918;28;20205;-78
2023/12/31 08:50:20;;;;;;;5.23;2.10;;;5.70;99.90;;;;;;4210985;28;20845;-78
2023/12/31 08:52:21;;;;;;;3.30;1.87;;;5.70;99.90;;;;;;4211316;28;20217;-79
2023/12/31 08:54:23;;;;;;;4.43;1.97;;;5.70;99.90;;;;;;4212682;28;20271;-79
2023/12/31 08:56:25;;;;;;;5.97;2.20;;;5.70;99.90;;;;;;4211799;28;20271;-78
2023/12/31 08:58:28;;;;;;;4.03;2.40;;;5.70;99.90;;;;;;4210622;28;20260;-78
2023/12/31 09:00:30;;;;;;;6.67;2.30;;;5.70;99.90;;;;;;4210598;28;20218;-79
2023/12/31 09:02:31;;;;;;;3.57;2.20;;;5.80;99.90;;;;;;4211479;28;20204;-80
2023/12/31 09:04:34;;;;;;;3.97;2.20;;;5.80;99.90;;;;;;4214353;28;20839;-78
2023/12/31 09:06:36;;;;;;;2.57;1.83;;;5.80;99.90;;;;;;4209650;28;20250;-78
2023/12/31 09:08:38;;;;;;;3.97;2.10;;;5.80;99.90;;;;;;4209523;28;20775;-78
2023/12/31 09:10:40;;;;;;;4.13;2.00;;;5.80;99.90;;;;;;4210693;28;20894;-77
2023/12/31 09:12:42;;;;;;;5.13;2.63;;;5.90;99.90;;;;;;4206699;28;20447;-78
2023/12/31 09:14:45;;;;;;;6.43;2.67;;;5.90;99.90;;;;;;4210852;28;20213;-77
2023/12/31 09:16:47;;;;;;;8.83;3.37;;;5.90;99.90;;;;;;4196114;28;20263;-79
2023/12/31 09:18:49;;;;;;;6.47;2.70;;;6.00;99.90;;;;;;4213773;28;20678;-80
2023/12/31 09:20:51;;;;;;;3.47;2.30;;;6.00;99.90;;;;;;4213993;28;20198;-80
2023/12/31 09:22:53;;;;;;;3.77;2.20;;;6.00;99.90;;;;;;4214733;28;20848;-77
2023/12/31 09:24:55;;;;;;;4.63;2.40;;;6.10;99.90;;;;;;4214266;28;20442;-80
2023/12/31 09:26:57;;;;;;;5.03;2.03;;;6.10;99.90;;;;;;4214507;28;20716;-80
2023/12/31 09:29:00;;;;;;;5.47;2.07;;;6.20;99.90;;;;;;4214056;28;20213;-79
2023/12/31 09:31:04;;;;;;;2.67;1.70;;;6.30;99.90;;;;;;4218672;28;20291;-79
2023/12/31 09:33:06;;;;;;;3.10;1.90;;;6.30;99.90;;;;;;4214837;28;20222;-80
2023/12/31 09:35:07;;;;;;;4.53;2.43;;;6.40;99.90;;;;;;4216188;28;20434;-80
2023/12/31 09:37:16;;;;;;;3.90;1.80;;;6.40;99.90;;;;;;4217045;28;20207;-79
2023/12/31 09:39:18;;;;;;;9.07;1.90;;;6.50;99.90;;;;;;4214034;28;20201;-78
2023/12/31 09:41:24;;;;;;;5.40;1.93;;;6.50;99.90;;;;;;4215007;28;20211;-76
2023/12/31 09:43:27;;;;;;;4.57;2.37;;;6.60;99.90;;;;;;4216289;28;20725;-80
2023/12/31 09:45:31;;;;;;;2.57;1.77;;;6.70;99.90;;;;;;4214893;28;20258;-80
2023/12/31 09:47:36;;;;;;;5.97;2.33;;;6.80;99.90;;;;;;4214170;28;20232;-80
2023/12/31 09:49:39;;;;;;;3.77;1.93;;;6.80;99.90;;;;;;4210641;28;20264;-79
2023/12/31 09:51:41;;;;;;;3.70;1.70;;;6.90;99.90;;;;;;4212448;28;20746;-80
2023/12/31 09:53:44;;;;;;;4.83;1.90;;;6.90;99.90;;;;;;4214184;28;20227;-78
2023/12/31 09:55:47;;;;;;;2.73;1.70;;;7.00;99.90;;;;;;4213730;28;20658;-77
2023/12/31 09:57:49;;;;;;;3.53;1.70;;;7.10;99.90;;;;;;4220339;28;20300;-76
2023/12/31 09:59:52;;;;;;;2.97;1.80;;;7.10;99.90;;;;;;4214705;28;20765;-77
2023/12/31 10:01:58;;;;;;;4.17;2.50;;;7.10;99.90;;;;;;4216925;28;20218;-78
2023/12/31 10:04:02;;;;;;;4.60;1.60;;;7.20;99.90;;;;;;4215048;28;20239;-77
2023/12/31 10:06:06;;;;;;;4.03;1.80;;;7.30;99.90;;;;;;4215002;28;20213;-78
2023/12/31 10:08:10;;;;;;;4.43;1.70;;;7.40;99.90;;;;;;4213025;28;20274;-79
2023/12/31 10:10:16;;;;;;;3.67;1.87;;;7.40;99.90;;;;;;4216816;28;20217;-78
2023/12/31 10:12:17;;;;;;;8.50;2.70;;;7.40;99.90;;;;;;4213628;28;20207;-79
2023/12/31 10:14:19;;;;;;;6.90;3.13;;;7.50;99.90;;;;;;4214906;28;20701;-79
2023/12/31 10:16:33;;;;;;;5.40;2.87;;;7.50;99.90;;;;;;4212177;28;20258;-77
2023/12/31 10:18:37;;;;;;;6.40;2.50;;;7.50;99.90;;;;;;4211649;28;20496;-79
2023/12/31 10:20:40;;;;;;;3.33;1.97;;;7.60;99.90;;;;;;4213167;28;20196;-76
2023/12/31 10:22:42;;;;;;;4.07;2.00;;;7.70;99.90;;;;;;4212405;28;20317;-75
2023/12/31 10:24:44;;;;;;;3.20;1.60;;;7.70;99.90;;;;;;4218137;28;20595;-81
2023/12/31 10:26:48;;;;;;;2.67;1.80;;;7.70;99.90;;;;;;4208026;28;20196;-79
2023/12/31 10:28:50;;;;;;;2.33;1.63;;;7.70;99.90;;;;;;4214264;28;20601;-76
2023/12/31 10:30:52;;;;;;;7.43;2.13;;;7.70;99.90;;;;;;4215777;28;20310;-78
2023/12/31 10:32:53;;;;;;;2.63;1.57;;;7.70;99.90;;;;;;4212745;28;20238;-74
2023/12/31 10:35:13;;;;;;;2.40;1.50;;;7.70;99.90;;;;;;4212960;28;20313;-73
2023/12/31 10:37:22;;;;;;;6.43;1.73;;;7.70;99.90;;;;;;4210382;28;20221;-74
2023/12/31 10:39:27;;;;;;;3.03;1.47;;;7.70;99.90;;;;;;4210777;28;20215;-73
2023/12/31 10:41:31;;;;;;;4.03;1.70;;;7.80;99.90;;;;;;4210711;28;20311;-72
2023/12/31 10:43:33;;;;;;;2.97;1.40;;;7.80;99.90;;;;;;4205444;28;20234;-75
2023/12/31 10:45:36;;;;;;;2.83;1.20;;;7.70;99.90;;;;;;4205149;28;20658;-75
2023/12/31 10:47:39;;;;;;;5.50;1.83;;;7.80;99.90;;;;;;4205536;28;20210;-75